sensor_id;sensor_type;location;lat;lon;timestamp;pressure;altitude;pressure_sealevel;temperature;humidity
77240;BME280;66258;53.170;-2.240;2023-04-01T00:01:52;98801.25;;;17.59;91.31
77240;BME280;66258;53.170;-2.240;2023-04-01T00:04:18;98810.78;;;17.57;90.99
77240;BME280;66258;53.170;-2.240;2023-04-01T00:06:45;98811.78;;;17.50;90.47
77240;BME280;66258;53.170;-2.240;2023-04-01T00:09:12;98818.66;;;17.53;90.08
77240;BME280;66258;53.170;-2.240;2023-04-01T00:11:39;98819.41;;;17.48;89.62
77240;BME280;66258;53.170;-2.240;2023-04-01T00:14:06;98815.78;;;17.43;89.74
77240;BME280;66258;53.170;-2.240;2023-04-01T00:16:33;98813.66;;;17.33;89.42
77240;BME280;66258;53.170;-2.240;2023-04-01T00:19:01;98820.22;;;17.32;89.25
77240;BME280;66258;53.170;-2.240;2023-04-01T00:21:29;98821.72;;;17.23;89.89
77240;BME280;66258;53.170;-2.240;2023-04-01T00:23:56;98824.69;;;17.22;89.99
77240;BME280;66258;53.170;-2.240;2023-04-01T00:26:22;98829.09;;;17.23;89.68
77240;BME280;66258;53.170;-2.240;2023-04-01T00:28:49;98829.59;;;17.36;89.26
77240;BME280;66258;53.170;-2.240;2023-04-01T00:31:16;98838.53;;;17.32;89.29
77240;BME280;66258;53.170;-2.240;2023-04-01T00:33:43;98836.00;;;17.13;90.17
77240;BME280;66258;53.170;-2.240;2023-04-01T00:36:13;98829.38;;;17.26;90.90
77240;BME280;66258;53.170;-2.240;2023-04-01T00:38:41;98840.25;;;17.21;90.86
77240;BME280;66258;53.170;-2.240;2023-04-01T00:41:09;98841.59;;;17.07;91.25
77240;BME280;66258;53.170;-2.240;2023-04-01T00:43:36;98828.34;;;16.99;91.59
77240;BME280;66258;53.170;-2.240;2023-04-01T00:46:03;98834.47;;;17.06;91.70
77240;BME280;66258;53.170;-2.240;2023-04-01T00:48:32;98832.69;;;16.83;92.17
77240;BME280;66258;53.170;-2.240;2023-04-01T00:51:03;98837.50;;;16.93;92.19
77240;BME280;66258;53.170;-2.240;2023-04-01T00:53:35;98838.34;;;16.93;92.30
77240;BME280;66258;53.170;-2.240;2023-04-01T00:56:05;98844.94;;;17.09;92.18
77240;BME280;66258;53.170;-2.240;2023-04-01T00:58:37;98848.78;;;16.96;91.90
77240;BME280;66258;53.170;-2.240;2023-04-01T01:01:06;98845.59;;;16.99;91.92
77240;BME280;66258;53.170;-2.240;2023-04-01T01:03:35;98843.69;;;17.00;92.01
77240;BME280;66258;53.170;-2.240;2023-04-01T01:06:11;98845.03;;;17.14;91.77
77240;BME280;66258;53.170;-2.240;2023-04-01T01:08:56;98848.38;;;17.04;91.97
77240;BME280;66258;53.170;-2.240;2023-04-01T01:11:35;98855.09;;;16.97;92.07
77240;BME280;66258;53.170;-2.240;2023-04-01T01:14:26;98855.69;;;16.99;92.38
77240;BME280;66258;53.170;-2.240;2023-04-01T01:16:58;98862.72;;;16.95;92.88
77240;BME280;66258;53.170;-2.240;2023-04-01T01:19:49;98861.75;;;17.01;92.71
77240;BME280;66258;53.170;-2.240;2023-04-01T01:22:33;98865.78;;;16.98;92.76
77240;BME280;66258;53.170;-2.240;2023-04-01T01:25:31;98867.69;;;16.98;92.91
77240;BME280;66258;53.170;-2.240;2023-04-01T01:28:15;98866.50;;;16.94;92.45
77240;BME280;66258;53.170;-2.240;2023-04-01T01:30:55;98870.81;;;17.18;91.51
77240;BME280;66258;53.170;-2.240;2023-04-01T01:33:48;98874.75;;;17.22;90.17
77240;BME280;66258;53.170;-2.240;2023-04-01T01:36:19;98878.44;;;17.16;89.91
77240;BME280;66258;53.170;-2.240;2023-04-01T01:38:48;98879.28;;;17.16;89.75
77240;BME280;66258;53.170;-2.240;2023-04-01T01:41:17;98881.09;;;17.28;89.37
77240;BME280;66258;53.170;-2.240;2023-04-01T01:43:47;98886.41;;;17.17;89.26
77240;BME280;66258;53.170;-2.240;2023-04-01T01:46:23;98882.38;;;17.08;89.21
77240;BME280;66258;53.170;-2.240;2023-04-01T01:48:53;98885.69;;;17.10;88.74
77240;BME280;66258;53.170;-2.240;2023-04-01T01:51:24;98883.50;;;16.96;88.20
77240;BME280;66258;53.170;-2.240;2023-04-01T01:53:51;98881.00;;;16.94;88.40
77240;BME280;66258;53.170;-2.240;2023-04-01T01:56:18;98890.81;;;16.78;88.96
77240;BME280;66258;53.170;-2.240;2023-04-01T01:58:50;98886.47;;;16.94;88.84
77240;BME280;66258;53.170;-2.240;2023-04-01T02:01:21;98894.44;;;16.96;88.46
77240;BME280;66258;53.170;-2.240;2023-04-01T02:03:50;98895.25;;;16.96;88.16
77240;BME280;66258;53.170;-2.240;2023-04-01T02:06:21;98897.06;;;16.91;88.29
77240;BME280;66258;53.170;-2.240;2023-04-01T02:08:52;98898.59;;;16.98;88.38
77240;BME280;66258;53.170;-2.240;2023-04-01T02:11:26;98903.56;;;17.01;88.00
77240;BME280;66258;53.170;-2.240;2023-04-01T02:13:55;98912.50;;;16.97;87.83
77240;BME280;66258;53.170;-2.240;2023-04-01T02:16:28;98914.88;;;16.93;87.93
77240;BME280;66258;53.170;-2.240;2023-04-01T02:18:59;98916.66;;;16.99;87.89
77240;BME280;66258;53.170;-2.240;2023-04-01T02:21:30;98923.19;;;16.98;88.06
77240;BME280;66258;53.170;-2.240;2023-04-01T02:24:01;98919.69;;;16.74;88.22
77240;BME280;66258;53.170;-2.240;2023-04-01T02:26:29;98914.88;;;16.93;87.98
77240;BME280;66258;53.170;-2.240;2023-04-01T02:28:59;98919.03;;;16.84;87.98
77240;BME280;66258;53.170;-2.240;2023-04-01T02:31:28;98922.38;;;16.86;87.68
77240;BME280;66258;53.170;-2.240;2023-04-01T02:33:54;98931.31;;;16.70;87.92
77240;BME280;66258;53.170;-2.240;2023-04-01T02:36:21;98936.91;;;16.75;88.02
77240;BME280;66258;53.170;-2.240;2023-04-01T02:38:49;98941.03;;;16.89;87.71
77240;BME280;66258;53.170;-2.240;2023-04-01T02:41:18;98934.25;;;17.03;85.86
77240;BME280;66258;53.170;-2.240;2023-04-01T02:43:45;98935.31;;;16.91;86.66
77240;BME280;66258;53.170;-2.240;2023-04-01T02:46:12;98929.97;;;16.84;86.40
77240;BME280;66258;53.170;-2.240;2023-04-01T02:48:38;98933.78;;;16.95;87.00
77240;BME280;66258;53.170;-2.240;2023-04-01T02:51:07;98930.56;;;16.63;86.84
77240;BME280;66258;53.170;-2.240;2023-04-01T02:53:34;98937.84;;;16.57;86.86
77240;BME280;66258;53.170;-2.240;2023-04-01T02:56:01;98939.63;;;16.52;86.80
77240;BME280;66258;53.170;-2.240;2023-04-01T02:58:29;98949.50;;;16.41;86.84
77240;BME280;66258;53.170;-2.240;2023-04-01T03:00:56;98947.31;;;16.43;86.84
77240;BME280;66258;53.170;-2.240;2023-04-01T03:03:23;98953.41;;;16.57;86.50
77240;BME280;66258;53.170;-2.240;2023-04-01T03:05:49;98949.13;;;16.61;86.39
77240;BME280;66258;53.170;-2.240;2023-04-01T03:08:16;98950.56;;;16.63;86.42
77240;BME280;66258;53.170;-2.240;2023-04-01T03:10:43;98959.81;;;16.62;86.47
77240;BME280;66258;53.170;-2.240;2023-04-01T03:13:10;98954.13;;;16.64;86.68
77240;BME280;66258;53.170;-2.240;2023-04-01T03:15:38;98955.41;;;16.49;86.67
77240;BME280;66258;53.170;-2.240;2023-04-01T03:18:04;98956.38;;;16.55;86.78
77240;BME280;66258;53.170;-2.240;2023-04-01T03:20:32;98960.41;;;16.53;86.91
77240;BME280;66258;53.170;-2.240;2023-04-01T03:22:59;98965.63;;;16.54;86.42
77240;BME280;66258;53.170;-2.240;2023-04-01T03:25:26;98968.00;;;16.50;86.29
77240;BME280;66258;53.170;-2.240;2023-04-01T03:27:53;98976.56;;;16.54;86.41
77240;BME280;66258;53.170;-2.240;2023-04-01T03:30:20;98967.88;;;16.45;86.64
77240;BME280;66258;53.170;-2.240;2023-04-01T03:32:49;98962.06;;;16.42;86.80
77240;BME280;66258;53.170;-2.240;2023-04-01T03:35:15;98971.22;;;16.36;87.07
77240;BME280;66258;53.170;-2.240;2023-04-01T03:37:42;98972.19;;;16.41;86.84
77240;BME280;66258;53.170;-2.240;2023-04-01T03:40:11;98982.00;;;16.42;86.75
77240;BME280;66258;53.170;-2.240;2023-04-01T03:42:38;98977.63;;;16.53;86.44
77240;BME280;66258;53.170;-2.240;2023-04-01T03:45:05;98982.75;;;16.38;86.00
77240;BME280;66258;53.170;-2.240;2023-04-01T03:47:32;98977.63;;;16.41;86.56
77240;BME280;66258;53.170;-2.240;2023-04-01T03:50:01;98975.97;;;16.40;86.28
77240;BME280;66258;53.170;-2.240;2023-04-01T03:52:28;98984.97;;;16.29;87.00
77240;BME280;66258;53.170;-2.240;2023-04-01T03:54:55;98987.47;;;16.42;87.36
77240;BME280;66258;53.170;-2.240;2023-04-01T03:57:21;98987.84;;;16.34;87.00
77240;BME280;66258;53.170;-2.240;2023-04-01T03:59:48;98985.19;;;16.28;87.41
77240;BME280;66258;53.170;-2.240;2023-04-01T04:02:15;98988.06;;;16.33;87.72
77240;BME280;66258;53.170;-2.240;2023-04-01T04:04:42;98996.97;;;16.28;87.70
77240;BME280;66258;53.170;-2.240;2023-04-01T04:07:10;98995.28;;;16.27;87.60
77240;BME280;66258;53.170;-2.240;2023-04-01T04:09:37;98997.59;;;16.54;87.12
77240;BME280;66258;53.170;-2.240;2023-04-01T04:12:04;98996.50;;;16.31;87.10
77240;BME280;66258;53.170;-2.240;2023-04-01T04:14:31;99008.16;;;16.38;87.05
77240;BME280;66258;53.170;-2.240;2023-04-01T04:16:57;99010.28;;;16.36;87.14
77240;BME280;66258;53.170;-2.240;2023-04-01T04:19:24;99013.47;;;16.33;86.93
77240;BME280;66258;53.170;-2.240;2023-04-01T04:21:53;99016.09;;;16.40;86.65
77240;BME280;66258;53.170;-2.240;2023-04-01T04:24:21;99028.69;;;16.53;86.58
77240;BME280;66258;53.170;-2.240;2023-04-01T04:26:48;99021.81;;;16.38;86.69
77240;BME280;66258;53.170;-2.240;2023-04-01T04:29:14;99030.78;;;16.27;86.81
77240;BME280;66258;53.170;-2.240;2023-04-01T04:31:41;99037.22;;;16.44;86.67
77240;BME280;66258;53.170;-2.240;2023-04-01T04:34:07;99033.31;;;16.40;86.50
77240;BME280;66258;53.170;-2.240;2023-04-01T04:36:34;99045.66;;;16.31;87.01
77240;BME280;66258;53.170;-2.240;2023-04-01T04:39:01;99041.03;;;16.43;86.70
77240;BME280;66258;53.170;-2.240;2023-04-01T04:41:29;99042.09;;;16.42;86.02
77240;BME280;66258;53.170;-2.240;2023-04-01T04:43:56;99052.25;;;16.24;86.95
77240;BME280;66258;53.170;-2.240;2023-04-01T04:46:23;99043.97;;;16.19;86.19
77240;BME280;66258;53.170;-2.240;2023-04-01T04:48:50;99055.44;;;16.09;87.02
77240;BME280;66258;53.170;-2.240;2023-04-01T04:51:18;99052.94;;;16.07;87.27
77240;BME280;66258;53.170;-2.240;2023-04-01T04:53:46;99062.09;;;16.13;86.70
77240;BME280;66258;53.170;-2.240;2023-04-01T04:56:13;99064.84;;;16.13;86.73
77240;BME280;66258;53.170;-2.240;2023-04-01T04:58:41;99074.94;;;16.24;86.45
77240;BME280;66258;53.170;-2.240;2023-04-01T05:01:09;99076.75;;;16.30;86.37
77240;BME280;66258;53.170;-2.240;2023-04-01T05:03:36;99079.47;;;16.19;85.92
77240;BME280;66258;53.170;-2.240;2023-04-01T05:06:03;99079.00;;;16.33;86.36
77240;BME280;66258;53.170;-2.240;2023-04-01T05:08:30;99080.00;;;16.09;86.06
77240;BME280;66258;53.170;-2.240;2023-04-01T05:10:57;99073.81;;;16.02;85.66
77240;BME280;66258;53.170;-2.240;2023-04-01T05:13:23;99078.91;;;15.98;85.45
77240;BME280;66258;53.170;-2.240;2023-04-01T05:15:51;99080.31;;;16.01;85.38
77240;BME280;66258;53.170;-2.240;2023-04-01T05:18:18;99092.88;;;16.20;84.97
77240;BME280;66258;53.170;-2.240;2023-04-01T05:20:49;99098.13;;;16.03;84.72
77240;BME280;66258;53.170;-2.240;2023-04-01T05:23:23;99097.44;;;16.08;84.72
77240;BME280;66258;53.170;-2.240;2023-04-01T05:25:50;99106.94;;;16.05;84.73
77240;BME280;66258;53.170;-2.240;2023-04-01T05:28:17;99113.78;;;15.96;84.86
77240;BME280;66258;53.170;-2.240;2023-04-01T05:30:44;99106.13;;;15.87;84.96
77240;BME280;66258;53.170;-2.240;2023-04-01T05:33:13;99112.25;;;16.00;84.37
77240;BME280;66258;53.170;-2.240;2023-04-01T05:35:40;99111.00;;;16.14;83.90
77240;BME280;66258;53.170;-2.240;2023-04-01T05:38:07;99120.69;;;15.99;84.20
77240;BME280;66258;53.170;-2.240;2023-04-01T05:40:34;99118.53;;;16.01;84.16
77240;BME280;66258;53.170;-2.240;2023-04-01T05:43:01;99132.19;;;16.01;83.71
77240;BME280;66258;53.170;-2.240;2023-04-01T05:45:28;99132.19;;;16.01;83.79
77240;BME280;66258;53.170;-2.240;2023-04-01T05:47:55;99135.56;;;15.85;84.13
77240;BME280;66258;53.170;-2.240;2023-04-01T05:50:24;99140.06;;;15.79;84.78
77240;BME280;66258;53.170;-2.240;2023-04-01T05:52:51;99135.72;;;15.71;85.15
77240;BME280;66258;53.170;-2.240;2023-04-01T05:55:17;99139.69;;;15.57;85.70
77240;BME280;66258;53.170;-2.240;2023-04-01T05:57:44;99142.28;;;15.82;85.18
77240;BME280;66258;53.170;-2.240;2023-04-01T06:00:12;99140.72;;;15.93;84.82
77240;BME280;66258;53.170;-2.240;2023-04-01T06:02:39;99156.31;;;15.86;84.99
77240;BME280;66258;53.170;-2.240;2023-04-01T06:05:13;99153.28;;;15.94;84.48
77240;BME280;66258;53.170;-2.240;2023-04-01T06:07:42;99160.31;;;16.01;84.25
77240;BME280;66258;53.170;-2.240;2023-04-01T06:10:12;99164.88;;;16.07;84.26
77240;BME280;66258;53.170;-2.240;2023-04-01T06:12:57;99163.19;;;16.06;84.17
77240;BME280;66258;53.170;-2.240;2023-04-01T06:15:36;99174.66;;;15.97;84.73
77240;BME280;66258;53.170;-2.240;2023-04-01T06:18:39;99178.22;;;15.97;84.68
77240;BME280;66258;53.170;-2.240;2023-04-01T06:21:23;99181.47;;;16.06;84.40
77240;BME280;66258;53.170;-2.240;2023-04-01T06:24:04;99186.53;;;16.02;84.52
77240;BME280;66258;53.170;-2.240;2023-04-01T06:26:37;99190.09;;;16.21;83.99
77240;BME280;66258;53.170;-2.240;2023-04-01T06:29:29;99194.22;;;16.12;84.04
77240;BME280;66258;53.170;-2.240;2023-04-01T06:32:09;99201.94;;;16.15;84.00
77240;BME280;66258;53.170;-2.240;2023-04-01T06:35:07;99198.84;;;16.11;84.29
77240;BME280;66258;53.170;-2.240;2023-04-01T06:37:50;99206.97;;;16.00;84.62
77240;BME280;66258;53.170;-2.240;2023-04-01T06:40:34;99204.97;;;16.07;84.17
77240;BME280;66258;53.170;-2.240;2023-04-01T06:43:15;99208.25;;;16.15;84.02
77240;BME280;66258;53.170;-2.240;2023-04-01T06:45:51;99213.25;;;16.19;83.60
77240;BME280;66258;53.170;-2.240;2023-04-01T06:48:42;99221.34;;;16.07;83.02
77240;BME280;66258;53.170;-2.240;2023-04-01T06:51:27;99215.75;;;16.02;82.62
77240;BME280;66258;53.170;-2.240;2023-04-01T06:54:03;99227.66;;;16.07;82.70
77240;BME280;66258;53.170;-2.240;2023-04-01T06:56:32;99232.50;;;16.05;82.75
77240;BME280;66258;53.170;-2.240;2023-04-01T06:59:02;99228.00;;;16.29;82.75
77240;BME280;66258;53.170;-2.240;2023-04-01T07:01:35;99241.16;;;16.21;81.62
77240;BME280;66258;53.170;-2.240;2023-04-01T07:04:08;99252.09;;;16.50;81.25
77240;BME280;66258;53.170;-2.240;2023-04-01T07:06:39;99245.53;;;16.40;80.56
77240;BME280;66258;53.170;-2.240;2023-04-01T07:09:13;99252.19;;;16.44;80.78
77240;BME280;66258;53.170;-2.240;2023-04-01T07:11:45;99257.34;;;16.52;80.01
77240;BME280;66258;53.170;-2.240;2023-04-01T07:14:19;99261.34;;;16.49;80.20
77240;BME280;66258;53.170;-2.240;2023-04-01T07:16:51;99254.59;;;16.52;79.02
77240;BME280;66258;53.170;-2.240;2023-04-01T07:19:21;99266.50;;;16.58;77.96
77240;BME280;66258;53.170;-2.240;2023-04-01T07:21:54;99274.19;;;16.67;78.26
77240;BME280;66258;53.170;-2.240;2023-04-01T07:24:26;99278.34;;;16.70;78.00
77240;BME280;66258;53.170;-2.240;2023-04-01T07:26:56;99280.47;;;16.68;78.02
77240;BME280;66258;53.170;-2.240;2023-04-01T07:29:23;99280.31;;;16.81;78.19
77240;BME280;66258;53.170;-2.240;2023-04-01T07:32:09;99284.22;;;16.85;77.42
77240;BME280;66258;53.170;-2.240;2023-04-01T07:34:47;99292.16;;;16.75;77.70
77240;BME280;66258;53.170;-2.240;2023-04-01T07:37:20;99283.38;;;16.55;76.09
77240;BME280;66258;53.170;-2.240;2023-04-01T07:39:54;99285.47;;;16.71;76.25
77240;BME280;66258;53.170;-2.240;2023-04-01T07:42:37;99294.53;;;17.01;77.15
77240;BME280;66258;53.170;-2.240;2023-04-01T07:45:15;99296.81;;;17.28;78.30
77240;BME280;66258;53.170;-2.240;2023-04-01T07:47:58;99295.66;;;17.47;77.79
77240;BME280;66258;53.170;-2.240;2023-04-01T07:50:28;99303.03;;;17.46;77.14
77240;BME280;66258;53.170;-2.240;2023-04-01T07:53:05;99320.47;;;17.64;76.97
77240;BME280;66258;53.170;-2.240;2023-04-01T07:55:39;99316.69;;;17.65;76.07
77240;BME280;66258;53.170;-2.240;2023-04-01T07:58:17;99325.13;;;17.98;74.73
77240;BME280;66258;53.170;-2.240;2023-04-01T08:00:56;99328.00;;;17.92;72.05
77240;BME280;66258;53.170;-2.240;2023-04-01T08:03:36;99336.53;;;18.30;71.69
77240;BME280;66258;53.170;-2.240;2023-04-01T08:06:11;99343.09;;;18.41;69.72
77240;BME280;66258;53.170;-2.240;2023-04-01T08:08:50;99349.81;;;18.73;69.62
77240;BME280;66258;53.170;-2.240;2023-04-01T08:11:28;99355.81;;;19.27;68.64
77240;BME280;66258;53.170;-2.240;2023-04-01T08:14:05;99357.44;;;19.11;66.17
77240;BME280;66258;53.170;-2.240;2023-04-01T08:16:38;99362.03;;;18.94;65.37
77240;BME280;66258;53.170;-2.240;2023-04-01T08:19:17;99370.91;;;18.73;64.43
77240;BME280;66258;53.170;-2.240;2023-04-01T08:21:50;99367.75;;;18.17;65.93
77240;BME280;66258;53.170;-2.240;2023-04-01T08:24:25;99367.88;;;18.11;66.10
77240;BME280;66258;53.170;-2.240;2023-04-01T08:27:15;99373.47;;;18.39;66.50
77240;BME280;66258;53.170;-2.240;2023-04-01T08:29:49;99370.91;;;18.84;66.77
77240;BME280;66258;53.170;-2.240;2023-04-01T08:32:22;99389.38;;;19.46;64.33
77240;BME280;66258;53.170;-2.240;2023-04-01T08:35:02;99381.44;;;19.61;62.45
77240;BME280;66258;53.170;-2.240;2023-04-01T08:37:36;99391.22;;;19.57;60.86
77240;BME280;66258;53.170;-2.240;2023-04-01T08:40:27;99399.75;;;19.44;61.12
77240;BME280;66258;53.170;-2.240;2023-04-01T08:43:06;99401.16;;;19.30;60.88
77240;BME280;66258;53.170;-2.240;2023-04-01T08:45:53;99402.56;;;18.92;61.08
77240;BME280;66258;53.170;-2.240;2023-04-01T08:48:40;99399.16;;;18.73;62.04
77240;BME280;66258;53.170;-2.240;2023-04-01T08:51:26;99409.56;;;18.60;62.36
77240;BME280;66258;53.170;-2.240;2023-04-01T08:54:12;99412.06;;;18.49;62.30
77240;BME280;66258;53.170;-2.240;2023-04-01T08:56:42;99410.91;;;18.97;64.56
77240;BME280;66258;53.170;-2.240;2023-04-01T08:59:29;99427.03;;;20.63;64.72
77240;BME280;66258;53.170;-2.240;2023-04-01T09:02:19;99435.44;;;21.92;55.26
77240;BME280;66258;53.170;-2.240;2023-04-01T09:08:09;99442.97;;;21.48;54.14
77240;BME280;66258;53.170;-2.240;2023-04-01T09:10:57;99446.63;;;22.86;51.27
77240;BME280;66258;53.170;-2.240;2023-04-01T09:13:41;99461.94;;;23.87;47.17
77240;BME280;66258;53.170;-2.240;2023-04-01T09:16:42;99474.44;;;24.50;45.38
77240;BME280;66258;53.170;-2.240;2023-04-01T09:19:34;99460.28;;;23.96;44.34
77240;BME280;66258;53.170;-2.240;2023-04-01T09:25:12;99476.34;;;25.55;40.95
77240;BME280;66258;53.170;-2.240;2023-04-01T09:27:45;99488.94;;;26.30;40.05
77240;BME280;66258;53.170;-2.240;2023-04-01T09:30:34;99481.00;;;24.90;39.52
77240;BME280;66258;53.170;-2.240;2023-04-01T09:36:21;99455.50;;;21.34;45.88
77240;BME280;66258;53.170;-2.240;2023-04-01T09:38:56;99463.44;;;20.70;47.80
77240;BME280;66258;53.170;-2.240;2023-04-01T09:41:29;99456.97;;;20.09;49.38
77240;BME280;66258;53.170;-2.240;2023-04-01T09:44:13;99466.03;;;20.43;51.96
77240;BME280;66258;53.170;-2.240;2023-04-01T09:46:59;99465.44;;;20.24;50.11
77240;BME280;66258;53.170;-2.240;2023-04-01T09:49:55;99463.53;;;19.63;51.10
77240;BME280;66258;53.170;-2.240;2023-04-01T09:52:33;99474.84;;;18.86;54.27
77240;BME280;66258;53.170;-2.240;2023-04-01T09:55:18;99465.56;;;18.87;56.43
77240;BME280;66258;53.170;-2.240;2023-04-01T10:01:23;99488.69;;;20.33;54.94
77240;BME280;66258;53.170;-2.240;2023-04-01T10:07:35;99502.19;;;22.26;56.88
77240;BME280;66258;53.170;-2.240;2023-04-01T10:10:35;99510.16;;;23.44;48.81
77240;BME280;66258;53.170;-2.240;2023-04-01T10:13:38;99514.53;;;23.40;46.48
77240;BME280;66258;53.170;-2.240;2023-04-01T10:19:49;99523.59;;;24.03;41.91
77240;BME280;66258;53.170;-2.240;2023-04-01T10:22:57;99529.72;;;22.85;41.86
77240;BME280;66258;53.170;-2.240;2023-04-01T10:25:37;99530.53;;;21.94;43.81
77240;BME280;66258;53.170;-2.240;2023-04-01T10:28:25;99539.16;;;21.76;44.44
77240;BME280;66258;53.170;-2.240;2023-04-01T10:31:38;99543.41;;;21.40;44.99
77240;BME280;66258;53.170;-2.240;2023-04-01T10:34:34;99532.94;;;20.48;46.13
77240;BME280;66258;53.170;-2.240;2023-04-01T10:37:21;99550.94;;;20.73;47.48
77240;BME280;66258;53.170;-2.240;2023-04-01T10:49:27;99558.72;;;21.14;46.77
77240;BME280;66258;53.170;-2.240;2023-04-01T10:55:17;99572.56;;;21.19;47.90
77240;BME280;66258;53.170;-2.240;2023-04-01T10:58:03;99576.69;;;21.39;47.92
77240;BME280;66258;53.170;-2.240;2023-04-01T11:01:04;99577.53;;;21.39;46.57
77240;BME280;66258;53.170;-2.240;2023-04-01T11:03:50;99577.38;;;21.12;46.51
77240;BME280;66258;53.170;-2.240;2023-04-01T11:06:57;99577.47;;;21.17;46.40
77240;BME280;66258;53.170;-2.240;2023-04-01T11:10:06;99589.91;;;21.03;45.67
77240;BME280;66258;53.170;-2.240;2023-04-01T11:16:00;99580.94;;;20.12;47.32
77240;BME280;66258;53.170;-2.240;2023-04-01T11:19:00;99580.88;;;20.24;46.26
77240;BME280;66258;53.170;-2.240;2023-04-01T11:21:56;99591.66;;;20.59;47.00
77240;BME280;66258;53.170;-2.240;2023-04-01T11:27:53;99601.97;;;20.07;45.75
77240;BME280;66258;53.170;-2.240;2023-04-01T11:30:48;99597.84;;;20.21;46.75
77240;BME280;66258;53.170;-2.240;2023-04-01T11:33:19;99596.50;;;20.07;47.44
77240;BME280;66258;53.170;-2.240;2023-04-01T11:36:00;99611.28;;;20.34;45.89
77240;BME280;66258;53.170;-2.240;2023-04-01T11:38:55;99614.03;;;20.34;46.55
77240;BME280;66258;53.170;-2.240;2023-04-01T11:41:34;99619.94;;;20.54;45.75
77240;BME280;66258;53.170;-2.240;2023-04-01T11:44:16;99619.53;;;20.06;44.33
77240;BME280;66258;53.170;-2.240;2023-04-01T11:46:54;99630.78;;;20.04;46.22
77240;BME280;66258;53.170;-2.240;2023-04-01T11:49:38;99629.56;;;20.12;46.55
77240;BME280;66258;53.170;-2.240;2023-04-01T11:52:20;99638.59;;;19.84;47.11
77240;BME280;66258;53.170;-2.240;2023-04-01T11:55:03;99645.94;;;19.55;47.86
77240;BME280;66258;53.170;-2.240;2023-04-01T11:57:57;99658.22;;;19.41;49.36
77240;BME280;66258;53.170;-2.240;2023-04-01T12:00:48;99655.59;;;18.99;48.52
77240;BME280;66258;53.170;-2.240;2023-04-01T12:03:39;99666.94;;;19.03;48.41
77240;BME280;66258;53.170;-2.240;2023-04-01T12:06:14;99666.94;;;18.91;49.06
77240;BME280;66258;53.170;-2.240;2023-04-01T12:08:51;99669.53;;;18.74;49.93
77240;BME280;66258;53.170;-2.240;2023-04-01T12:11:27;99669.41;;;18.81;49.54
77240;BME280;66258;53.170;-2.240;2023-04-01T12:14:01;99671.09;;;18.94;49.73
77240;BME280;66258;53.170;-2.240;2023-04-01T12:16:51;99670.06;;;19.06;49.97
77240;BME280;66258;53.170;-2.240;2023-04-01T12:19:28;99685.56;;;19.24;49.36
77240;BME280;66258;53.170;-2.240;2023-04-01T12:22:11;99680.31;;;19.22;49.78
77240;BME280;66258;53.170;-2.240;2023-04-01T12:24:47;99690.69;;;19.55;49.06
77240;BME280;66258;53.170;-2.240;2023-04-01T12:27:35;99684.81;;;19.75;48.94
77240;BME280;66258;53.170;-2.240;2023-04-01T12:33:23;99703.72;;;19.72;48.80
77240;BME280;66258;53.170;-2.240;2023-04-01T12:36:02;99716.47;;;19.78;48.95
77240;BME280;66258;53.170;-2.240;2023-04-01T12:38:41;99710.53;;;19.69;49.08
77240;BME280;66258;53.170;-2.240;2023-04-01T12:41:14;99713.72;;;19.31;49.02
77240;BME280;66258;53.170;-2.240;2023-04-01T12:44:12;99711.44;;;19.16;49.59
77240;BME280;66258;53.170;-2.240;2023-04-01T12:46:59;99713.09;;;19.17;50.02
77240;BME280;66258;53.170;-2.240;2023-04-01T12:49:47;99727.28;;;19.14;50.17
77240;BME280;66258;53.170;-2.240;2023-04-01T12:52:18;99725.16;;;19.16;49.79
77240;BME280;66258;53.170;-2.240;2023-04-01T12:58:10;99740.06;;;19.20;50.57
77240;BME280;66258;53.170;-2.240;2023-04-01T13:00:53;99734.34;;;19.22;50.20
77240;BME280;66258;53.170;-2.240;2023-04-01T13:03:49;99741.50;;;19.23;49.25
77240;BME280;66258;53.170;-2.240;2023-04-01T13:06:44;99744.00;;;19.13;48.54
77240;BME280;66258;53.170;-2.240;2023-04-01T13:09:25;99748.09;;;19.45;49.42
77240;BME280;66258;53.170;-2.240;2023-04-01T13:12:10;99755.72;;;19.43;48.99
77240;BME280;66258;53.170;-2.240;2023-04-01T13:15:17;99762.53;;;19.29;48.98
77240;BME280;66258;53.170;-2.240;2023-04-01T13:17:52;99766.41;;;19.51;48.68
77240;BME280;66258;53.170;-2.240;2023-04-01T13:20:27;99766.63;;;19.50;47.99
77240;BME280;66258;53.170;-2.240;2023-04-01T13:23:09;99763.63;;;19.75;47.59
77240;BME280;66258;53.170;-2.240;2023-04-01T13:25:46;99778.22;;;19.87;48.13
77240;BME280;66258;53.170;-2.240;2023-04-01T13:28:37;99783.13;;;19.73;47.10
77240;BME280;66258;53.170;-2.240;2023-04-01T13:31:11;99787.13;;;19.47;47.92
77240;BME280;66258;53.170;-2.240;2023-04-01T13:33:46;99793.59;;;19.76;47.27
77240;BME280;66258;53.170;-2.240;2023-04-01T13:36:21;99796.34;;;19.65;46.71
77240;BME280;66258;53.170;-2.240;2023-04-01T13:39:06;99796.25;;;19.71;47.20
77240;BME280;66258;53.170;-2.240;2023-04-01T13:41:50;99803.63;;;19.82;47.19
77240;BME280;66258;53.170;-2.240;2023-04-01T13:44:31;99811.53;;;19.67;47.22
77240;BME280;66258;53.170;-2.240;2023-04-01T13:47:09;99812.75;;;19.30;47.03
77240;BME280;66258;53.170;-2.240;2023-04-01T13:53:04;99817.72;;;19.51;46.80
77240;BME280;66258;53.170;-2.240;2023-04-01T13:55:54;99827.03;;;19.62;47.42
77240;BME280;66258;53.170;-2.240;2023-04-01T13:58:48;99827.53;;;19.82;47.20
77240;BME280;66258;53.170;-2.240;2023-04-01T14:01:25;99832.56;;;19.73;46.61
77240;BME280;66258;53.170;-2.240;2023-04-01T14:04:20;99828.22;;;19.54;46.61
77240;BME280;66258;53.170;-2.240;2023-04-01T14:07:00;99846.59;;;19.12;46.47
77240;BME280;66258;53.170;-2.240;2023-04-01T14:09:45;99848.00;;;19.03;47.08
77240;BME280;66258;53.170;-2.240;2023-04-01T14:12:29;99848.31;;;18.95;47.69
77240;BME280;66258;53.170;-2.240;2023-04-01T14:15:11;99848.63;;;19.16;48.07
77240;BME280;66258;53.170;-2.240;2023-04-01T14:17:53;99861.72;;;19.44;48.04
77240;BME280;66258;53.170;-2.240;2023-04-01T14:20:38;99862.50;;;19.63;47.63
77240;BME280;66258;53.170;-2.240;2023-04-01T14:23:32;99869.31;;;19.72;47.35
77240;BME280;66258;53.170;-2.240;2023-04-01T14:26:11;99872.06;;;19.72;47.25